メインページ
METAR-TAF:

METAR-TAF

空港 :

メキシコシティ, メキシコ

メキシコ・シティ国際空港

緯度: 19-26N, 経度: 099-06W, 海抜: 2238m

現時点の気象観測

当レポートは41分前の15:47(UTC)に作成
の風 7kt
気温 14°C
湿度 26%
気圧 1029 hPa
視程: 19.3km
晴天

METAR: MMMX 221547Z 35007KT 12SM SKC 14/M05 A3039 NOSIG

時間: 10:28 (16:28 UTC)

予報

当レポートは4時間26分前の12:02(UTC)に作成
予報は22日の 12時(UTC)から 23日の 18時(UTC)まで有効
の風 11kt
視程: 9.7km
高度2000ftの雲は散在している
高度8000ftの千切れ雲あり
煙霧
22日の 1800時(UTC)から
東/北東の風 12kt
視程: 10km
高度2000ftの雲は散在している
高度8000ftの千切れ雲あり
高度25000ftの千切れ雲あり
23日の 0600時(UTC)から
北東の風 5kt
視程: 10km
高度2000ftの雲は散在している
23日の 11時(UTC)から 23日の 15時(UTC)まで一時的に
視程: 6.4km
高度1500ftの雲は散在している
煙霧
23日の 1700時(UTC)から
東/北東の風 14kt
視程: 10km
高度2000ftの雲は散在している
高度25000ftの千切れ雲あり

TAF: MMMX 221202Z 2212/2318 36011KT 6SM HZ SCT020 BKN080 TX22/2221Z TN10/2213Z FM221800 07012KT P6SM SCT020 BKN080 BKN250 FM230600 04005KT P6SM SCT020 TEMPO 2311/2315 4SM HZ SCT015 FM231700 07014KT P6SM SCT020 BKN250

4,000以上の空港の気象観測と天気予報(METAR報とTAF報)

利用可能な観測所は地図上に黄色い丸と赤い丸で示す。

丸の上にカーソルを重ねると観測所名を参照できる。

次にクリックすると気象観測と天気予報を参照できる。

マップの切り替え:黒色「×」印の緑ボタンをクリックして拡大、「-」印の緑ボタンをクリックして縮小、緑色の三角印をクリックして隣りの地図に切り替え


METAR-TAF: